^^
WestSenecaWeather Station Historical Data
 
Daily Summary for October 22, 2018 Units:  English    Metric   Both
Daily Weekly Monthly Yearly Custom
  Current: High: Low: Average:
Temperature: 51 °F 52.1 °F 38.8 °F 43.9 °F
Dew Point: 40 °F 40.1 °F 28.9 °F 34.4 °F
Humidity: 66% 85% 52% 70%
Wind Speed: 6.9mph 18.4mph 0mph 6.6mph
Wind Gust: 3.1mph 9.9mph - -
WindNorth - - NNW
Pressure: 30.03 in 30.17 in 30.03 in -
Precipitation: 0 in      
Historical Graphs
 
 
Tabular Data for October 22, 2018
Time Temperature Dew Point Pressure Wind Wind Speed Wind Gust Humidity Rainfall Rate (Hourly) solar
00:04 38.8 °F 29.1 °F 30.17 in North 4.6 mph 2.6 mph 68% 0 in WeatherDisplay:10.37 W/m2
00:09 38.8 °F 29.1 °F 30.17 in North 3.5 mph 1.7 mph 68% 0 in WeatherDisplay:10.37 W/m2
00:14 38.8 °F 29.5 °F 30.17 in North 3.5 mph 1.8 mph 69% 0 in WeatherDisplay:10.37 W/m2
00:19 38.8 °F 29.5 °F 30.17 in North 4.6 mph 1.4 mph 69% 0 in WeatherDisplay:10.37 W/m2
00:24 38.9 °F 29.2 °F 30.17 in North 4 mph 2.3 mph 68% 0 in WeatherDisplay:10.37 W/m2
00:29 38.9 °F 29.6 °F 30.17 in North 3 mph 0.3 mph 69% 0 in WeatherDisplay:10.37 W/m2
00:34 38.9 °F 29.6 °F 30.16 in North 3.5 mph 1.7 mph 69% 0 in WeatherDisplay:10.37 W/m2
00:39 39.1 °F 29.8 °F 30.16 in North 3.5 mph 2 mph 69% 0 in WeatherDisplay:10.37 W/m2
00:44 39.2 °F 29.9 °F 30.17 in North 6.9 mph 3.5 mph 69% 0 in WeatherDisplay:10.37 W/m2
00:49 39.3 °F 30 °F 30.16 in North 4 mph 2.7 mph 69% 0 in WeatherDisplay:10.37 W/m2
00:54 39.3 °F 30 °F 30.16 in North 2.3 mph 0.9 mph 69% 0 in WeatherDisplay:10.37 W/m2
00:59 39.4 °F 29.7 °F 30.16 in North 3.5 mph 2.6 mph 68% 0 in WeatherDisplay:10.37 W/m2
01:04 39.4 °F 30.1 °F 30.16 in North 2.3 mph 1.7 mph 69% 0 in WeatherDisplay:10.37 W/m2
01:09 39.4 °F 30.1 °F 30.16 in North 2.3 mph 1.8 mph 69% 0 in WeatherDisplay:10.37 W/m2
01:14 39.4 °F 30.1 °F 30.16 in North 3.5 mph 2 mph 69% 0 in WeatherDisplay:10.37 W/m2
01:19 39.5 °F 30.2 °F 30.16 in North 2.3 mph 1.8 mph 69% 0 in WeatherDisplay:10.37 W/m2
01:24 39.5 °F 30.5 °F 30.16 in North 3 mph 1.7 mph 70% 0 in WeatherDisplay:10.37 W/m2
01:29 39.5 °F 30.5 °F 30.16 in North 3.5 mph 2.3 mph 70% 0 in WeatherDisplay:10.37 W/m2
01:34 39.5 °F 30.5 °F 30.16 in North 3.5 mph 2.8 mph 70% 0 in WeatherDisplay:10.37 W/m2
01:39 39.7 °F 30 °F 30.16 in North 4.6 mph 3.8 mph 68% 0 in WeatherDisplay:10.37 W/m2
01:44 39.8 °F 30.1 °F 30.16 in North 3.5 mph 0.9 mph 68% 0 in WeatherDisplay:10.37 W/m2
01:49 39.8 °F 30.5 °F 30.16 in North 3.5 mph 2 mph 69% 0 in WeatherDisplay:10.37 W/m2
01:54 39.7 °F 30 °F 30.16 in North 3 mph 1.2 mph 68% 0 in WeatherDisplay:10.37 W/m2
01:59 39.7 °F 29.3 °F 30.16 in North 4 mph 1.9 mph 66% 0 in WeatherDisplay:10.37 W/m2
02:04 39.7 °F 28.9 °F 30.16 in North 2.3 mph 0.9 mph 65% 0 in WeatherDisplay:10.37 W/m2
02:09 39.8 °F 29 °F 30.16 in North 5.8 mph 1.8 mph 65% 0 in WeatherDisplay:10.37 W/m2
02:14 39.8 °F 29.4 °F 30.16 in North 3.5 mph 2.8 mph 66% 0 in WeatherDisplay:10.37 W/m2
02:19 39.8 °F 29.4 °F 30.16 in Calm     66% 0 in WeatherDisplay:10.37 W/m2
02:24 39.7 °F 29.6 °F 30.16 in North 1.2 mph 0.8 mph 67% 0 in WeatherDisplay:10.37 W/m2
02:29 39.7 °F 29.6 °F 30.15 in North 2.3 mph 1.3 mph 67% 0 in WeatherDisplay:10.37 W/m2
02:34 39.7 °F 30 °F 30.16 in Calm     68% 0 in WeatherDisplay:10.37 W/m2
02:39 39.7 °F 30 °F 30.15 in North 1.2 mph 0.6 mph 68% 0 in WeatherDisplay:10.37 W/m2
02:44 39.6 °F 30.3 °F 30.15 in North 1.2 mph 1 mph 69% 0 in WeatherDisplay:10.37 W/m2
02:49 39.6 °F 30.3 °F 30.16 in North 1.2 mph 0.4 mph 69% 0 in WeatherDisplay:10.37 W/m2
02:54 39.6 °F 30.6 °F 30.15 in Calm     70% 0 in WeatherDisplay:10.37 W/m2
02:59 39.6 °F 30.6 °F 30.15 in North 2.3 mph   70% 0 in WeatherDisplay:10.37 W/m2
03:04 39.6 °F 30.6 °F 30.15 in Calm     70% 0 in WeatherDisplay:10.37 W/m2
03:09 39.6 °F 31 °F 30.15 in Calm     71% 0 in WeatherDisplay:10.37 W/m2
03:14 39.6 °F 31.3 °F 30.15 in Calm     72% 0 in WeatherDisplay:10.37 W/m2
03:19 39.4 °F 31.5 °F 30.15 in Calm     73% 0 in WeatherDisplay:10.37 W/m2
03:24 39.5 °F 32.2 °F 30.15 in North 3.5 mph 1.9 mph 75% 0 in WeatherDisplay:10.37 W/m2
03:29 39.6 °F 33.3 °F 30.15 in North 3.5 mph 1.8 mph 78% 0 in WeatherDisplay:10.37 W/m2
03:34 39.6 °F 33.6 °F 30.14 in North 3.5 mph 2.7 mph 79% 0 in WeatherDisplay:10.37 W/m2
03:39 39.6 °F 33.9 °F 30.14 in North 2.3 mph 2 mph 80% 0 in WeatherDisplay:10.37 W/m2
03:44 39.6 °F 34.6 °F 30.14 in North 3.5 mph 1.9 mph 82% 0 in WeatherDisplay:10.37 W/m2
03:49 39.6 °F 34.6 °F 30.14 in North 4 mph 3.8 mph 82% 0 in WeatherDisplay:10.37 W/m2
03:54 39.6 °F 34.9 °F 30.14 in North 3.5 mph 2.1 mph 83% 0 in WeatherDisplay:10.37 W/m2
03:59 39.5 °F 35.1 °F 30.14 in North 4.6 mph 2.1 mph 84% 0 in WeatherDisplay:10.37 W/m2
04:04 39.5 °F 35.1 °F 30.14 in North 3.5 mph 3 mph 84% 0 in WeatherDisplay:10.37 W/m2
04:09 39.4 °F 35 °F 30.14 in North 4.6 mph 2.6 mph 84% 0 in WeatherDisplay:10.37 W/m2
04:14 39.4 °F 35 °F 30.14 in North 2.3 mph 1 mph 84% 0 in WeatherDisplay:10.37 W/m2
04:19 39.3 °F 35.2 °F 30.14 in North 3.5 mph 2 mph 85% 0 in WeatherDisplay:10.37 W/m2
04:24 39.3 °F 35.2 °F 30.14 in North 3.5 mph 2.8 mph 85% 0 in WeatherDisplay:10.37 W/m2
04:29 39.3 °F 35.2 °F 30.13 in North 4.6 mph 3.5 mph 85% 0 in WeatherDisplay:10.37 W/m2
04:34 39.3 °F 35.2 °F 30.13 in North 4.6 mph 2.7 mph 85% 0 in WeatherDisplay:10.37 W/m2
04:39 39.3 °F 34.9 °F 30.13 in North 4.6 mph 2.5 mph 84% 0 in WeatherDisplay:10.37 W/m2
04:44 39.4 °F 35 °F 30.13 in North 5.8 mph 4.1 mph 84% 0 in WeatherDisplay:10.37 W/m2
04:49 39.5 °F 35.1 °F 30.13 in North 5.8 mph 3.6 mph 84% 0 in WeatherDisplay:10.37 W/m2
04:54 39.6 °F 35.2 °F 30.12 in North 3.5 mph 3 mph 84% 0 in WeatherDisplay:10.37 W/m2
04:59 39.7 °F 35 °F 30.12 in North 4.6 mph 3.5 mph 83% 0 in WeatherDisplay:10.37 W/m2
05:04 39.7 °F 35 °F 30.13 in North 3.5 mph 2.9 mph 83% 0 in WeatherDisplay:10.37 W/m2
05:09 39.8 °F 35.1 °F 30.12 in North 6 mph 5.5 mph 83% 0 in WeatherDisplay:10.37 W/m2
05:14 39.8 °F 35.1 °F 30.12 in North 5.8 mph 4.6 mph 83% 0 in WeatherDisplay:10.37 W/m2
05:19 39.8 °F 35.1 °F 30.12 in North 2.3 mph 1.3 mph 83% 0 in WeatherDisplay:10.37 W/m2
05:24 39.8 °F 35.1 °F 30.12 in North 6.9 mph 3.7 mph 83% 0 in WeatherDisplay:10.37 W/m2
05:29 39.7 °F 35 °F 30.12 in North 4.6 mph 2.8 mph 83% 0 in WeatherDisplay:10.37 W/m2
05:34 39.7 °F 35.3 °F 30.12 in North 5.8 mph 2.4 mph 84% 0 in WeatherDisplay:10.37 W/m2
05:39 39.6 °F 35.2 °F 30.11 in North 3.5 mph 2.1 mph 84% 0 in WeatherDisplay:10.37 W/m2
05:44 39.7 °F 35 °F 30.11 in North 5.8 mph 4.8 mph 83% 0 in WeatherDisplay:10.37 W/m2
05:49 39.7 °F 35 °F 30.11 in North 4.6 mph 2.5 mph 83% 0 in WeatherDisplay:10.37 W/m2
05:54 39.8 °F 35.1 °F 30.11 in North 3.5 mph 1.9 mph 83% 0 in WeatherDisplay:10.37 W/m2
05:59 39.9 °F 35.2 °F 30.11 in North 6 mph 2 mph 83% 0 in WeatherDisplay:10.37 W/m2
06:04 39.9 °F 34.9 °F 30.11 in North 5 mph 4.5 mph 82% 0 in WeatherDisplay:10.37 W/m2
06:09 39.9 °F 34.9 °F 30.11 in North 5.8 mph 2.9 mph 82% 0 in WeatherDisplay:10.37 W/m2
06:14 40 °F 34.9 °F 30.11 in North 6.9 mph 4.9 mph 82% 0 in WeatherDisplay:10.37 W/m2
06:19 40 °F 34.6 °F 30.11 in North 3.5 mph 1.9 mph 81% 0 in WeatherDisplay:10.37 W/m2
06:24 40.1 °F 34.7 °F 30.11 in North 5.8 mph 4.8 mph 81% 0 in WeatherDisplay:10.37 W/m2
06:29 40.2 °F 34.8 °F 30.11 in North 4 mph 3.6 mph 81% 0 in WeatherDisplay:10.37 W/m2
06:34 40.3 °F 34.6 °F 30.11 in North 6.9 mph 3.1 mph 80% 0 in WeatherDisplay:10.37 W/m2
06:39 40.4 °F 34.7 °F 30.11 in North 4.6 mph 2.5 mph 80% 0 in WeatherDisplay:10.37 W/m2
06:44 40.4 °F 34.7 °F 30.11 in North 6.9 mph 4.4 mph 80% 0 in WeatherDisplay:10.37 W/m2
06:49 40.5 °F 35.1 °F 30.11 in North 6.9 mph 3.4 mph 81% 0 in WeatherDisplay:10.37 W/m2
06:54 40.5 °F 35.1 °F 30.11 in North 2.3 mph 1.6 mph 81% 0 in WeatherDisplay:10.37 W/m2
06:59 40.6 °F 34.9 °F 30.11 in North 6.9 mph 3.6 mph 80% 0 in WeatherDisplay:10.37 W/m2
07:04 40.6 °F 34.9 °F 30.10 in North 4.6 mph 2.7 mph 80% 0 in WeatherDisplay:10.37 W/m2
07:09 40.7 °F 35 °F 30.10 in North 5.8 mph 2.7 mph 80% 0 in WeatherDisplay:10.37 W/m2
07:14 40.8 °F 34.8 °F 30.10 in North 3.5 mph 2.8 mph 79% 0 in WeatherDisplay:10.37 W/m2
07:19 40.9 °F 34.9 °F 30.10 in North 4.6 mph 2.2 mph 79% 0 in WeatherDisplay:10.37 W/m2
07:24 40.9 °F 35.2 °F 30.10 in North 4 mph 2.2 mph 80% 0 in WeatherDisplay:10.37 W/m2
07:29 40.9 °F 35.5 °F 30.09 in North 3 mph 2.2 mph 81% 0 in WeatherDisplay:10.37 W/m2
07:34 40.8 °F 35.4 °F 30.09 in North 4 mph 3 mph 81% 0 in WeatherDisplay:10.37 W/m2
07:39 40.8 °F 35.4 °F 30.09 in North 3.5 mph 0.6 mph 81% 0 in WeatherDisplay:10.37 W/m2
07:44 40.8 °F 35.1 °F 30.09 in North 4.6 mph 2.6 mph 80% 0 in WeatherDisplay:10.37 W/m2
07:49 40.9 °F 35.2 °F 30.09 in North 5.8 mph 2.8 mph 80% 0 in WeatherDisplay:10.37 W/m2
07:54 41 °F 35 °F 30.09 in North 8.1 mph 4.1 mph 79% 0 in WeatherDisplay:10.37 W/m2
07:59 41.1 °F 34.8 °F 30.09 in North 5 mph 4.8 mph 78% 0 in WeatherDisplay:10.37 W/m2
08:04 41.2 °F 34.5 °F 30.09 in North 5.8 mph 3.3 mph 77% 0 in WeatherDisplay:10.37 W/m2
08:09 41.3 °F 34.6 °F 30.09 in North 4.6 mph 4.2 mph 77% 0 in WeatherDisplay:10.37 W/m2
08:14 41.3 °F 34.3 °F 30.09 in North 12.7 mph 5.5 mph 76% 0 in WeatherDisplay:10.37 W/m2
08:19 41.5 °F 34.5 °F 30.09 in North 8.1 mph 3.1 mph 76% 0 in WeatherDisplay:10.37 W/m2
08:24 41.5 °F 34.5 °F 30.09 in North 5.8 mph 4.7 mph 76% 0 in WeatherDisplay:10.37 W/m2
08:29 41.8 °F 34.5 °F 30.09 in North 8.1 mph 3.6 mph 75% 0 in WeatherDisplay:10.37 W/m2
08:34 41.8 °F 34.5 °F 30.09 in North 8 mph 4.8 mph 75% 0 in WeatherDisplay:10.37 W/m2
08:39 41.9 °F 34.6 °F 30.09 in North 10.4 mph 4.8 mph 75% 0 in WeatherDisplay:10.37 W/m2
08:44 41.9 °F 34.2 °F 30.09 in North 5.8 mph 5 mph 74% 0 in WeatherDisplay:10.37 W/m2
08:49 42 °F 34.3 °F 30.09 in North 9.2 mph 4.4 mph 74% 0 in WeatherDisplay:10.37 W/m2
08:54 42.1 °F 34.4 °F 30.08 in North 7 mph 5.9 mph 74% 0 in WeatherDisplay:10.37 W/m2
08:59 42.2 °F 34.5 °F 30.09 in North 6.9 mph 4.2 mph 74% 0 in WeatherDisplay:10.37 W/m2
09:04 42.3 °F 34.6 °F 30.09 in North 8 mph 5.6 mph 74% 0 in WeatherDisplay:10.37 W/m2
09:09 42.4 °F 34.7 °F 30.09 in North 9.2 mph 6 mph 74% 0 in WeatherDisplay:10.37 W/m2
09:14 42.6 °F 34.9 °F 30.09 in North 5.8 mph 2.9 mph 74% 0 in WeatherDisplay:10.37 W/m2
09:19 42.7 °F 34.3 °F 30.09 in North 13.8 mph 6 mph 72% 0 in WeatherDisplay:10.37 W/m2
09:24 43 °F 34.6 °F 30.09 in North 6.9 mph 4 mph 72% 0 in WeatherDisplay:10.37 W/m2
09:29 43.2 °F 34.8 °F 30.09 in North 7 mph 6.4 mph 72% 0 in WeatherDisplay:10.37 W/m2
09:34 43.4 °F 35 °F 30.09 in North 6 mph 3.6 mph 72% 0 in WeatherDisplay:10.37 W/m2
09:39 43.6 °F 34.8 °F 30.09 in North 8.1 mph 4.6 mph 71% 0 in WeatherDisplay:10.37 W/m2
09:44 43.9 °F 35.1 °F 30.09 in North 10.4 mph 6 mph 71% 0 in WeatherDisplay:10.37 W/m2
09:49 44.1 °F 35.3 °F 30.09 in North 10.4 mph 5.7 mph 71% 0 in WeatherDisplay:10.37 W/m2
09:54 44.4 °F 35.2 °F 30.09 in North 7 mph 5.4 mph 70% 0 in WeatherDisplay:10.37 W/m2
09:59 44.6 °F 35.4 °F 30.09 in North 9.2 mph 3.1 mph 70% 0 in WeatherDisplay:10.37 W/m2
10:04 44.8 °F 35.2 °F 30.09 in North 9.2 mph 5.1 mph 69% 0 in WeatherDisplay:10.37 W/m2
10:09 44.7 °F 34.4 °F 30.09 in North 11.5 mph 6.4 mph 67% 0 in WeatherDisplay:10.37 W/m2
10:14 44.8 °F 34.9 °F 30.09 in North 10.4 mph 6.7 mph 68% 0 in WeatherDisplay:10.37 W/m2
10:19 44.8 °F 34.9 °F 30.09 in North 11.5 mph 8.2 mph 68% 0 in WeatherDisplay:10.37 W/m2
10:24 44.9 °F 34.6 °F 30.09 in North 10.4 mph 4.3 mph 67% 0 in WeatherDisplay:10.37 W/m2
10:29 45 °F 35.1 °F 30.09 in North 8 mph 5.5 mph 68% 0 in WeatherDisplay:10.37 W/m2
10:34 45 °F 34.7 °F 30.09 in North 9.2 mph 4.9 mph 67% 0 in WeatherDisplay:10.37 W/m2
10:39 45 °F 34.7 °F 30.09 in North 7 mph 4.3 mph 67% 0 in WeatherDisplay:10.37 W/m2
10:44 45.1 °F 34.4 °F 30.09 in North 10.4 mph 7.6 mph 66% 0 in WeatherDisplay:10.37 W/m2
10:49 45.1 °F 34 °F 30.08 in North 10.4 mph 3.8 mph 65% 0 in WeatherDisplay:10.37 W/m2
10:54 45.3 °F 34.2 °F 30.08 in North 10.4 mph 6.9 mph 65% 0 in WeatherDisplay:10.37 W/m2
10:59 45.4 °F 34.3 °F 30.08 in North 4.6 mph 2.9 mph 65% 0 in WeatherDisplay:10.37 W/m2
11:04 45.4 °F 33.9 °F 30.08 in North 10.4 mph 6.6 mph 64% 0 in WeatherDisplay:10.37 W/m2
11:09 45.4 °F 34.3 °F 30.08 in North 6.9 mph 4.5 mph 65% 0 in WeatherDisplay:10.37 W/m2
11:14 45.7 °F 34.6 °F 30.08 in North 8.1 mph 4.1 mph 65% 0 in WeatherDisplay:10.37 W/m2
11:19 46 °F 34.5 °F 30.08 in North 8.1 mph 6.4 mph 64% 0 in WeatherDisplay:10.37 W/m2
11:24 46.1 °F 35 °F 30.08 in North 10 mph 8 mph 65% 0 in WeatherDisplay:10.37 W/m2
11:29 46.3 °F 34.8 °F 30.08 in North 7 mph 4 mph 64% 0 in WeatherDisplay:10.37 W/m2
11:34 46.4 °F 34.5 °F 30.08 in North 10 mph 6.2 mph 63% 0 in WeatherDisplay:10.37 W/m2
11:39 46.5 °F 34.2 °F 30.08 in North 10.4 mph 4.9 mph 62% 0 in WeatherDisplay:10.37 W/m2
11:44 46.8 °F 34.5 °F 30.08 in North 8.1 mph 2.9 mph 62% 0 in WeatherDisplay:10.37 W/m2
11:49 47.1 °F 34.7 °F 30.08 in North 9.2 mph 6.3 mph 62% 0 in WeatherDisplay:10.37 W/m2
11:54 47.2 °F 34.8 °F 30.08 in North 8.1 mph 4.7 mph 62% 0 in WeatherDisplay:10.37 W/m2
11:59 47.3 °F 34.9 °F 30.08 in North 5.8 mph 2.4 mph 62% 0 in WeatherDisplay:10.37 W/m2
12:04 47.6 °F 35.6 °F 30.08 in North 3.5 mph 1.7 mph 63% 0 in WeatherDisplay:10.37 W/m2
12:09 48.4 °F 36 °F 30.07 in NW 3.5 mph 2.3 mph 62% 0 in WeatherDisplay:10.37 W/m2
12:14 49.2 °F 35.9 °F 30.07 in ENE 4.6 mph 3.5 mph 60% 0 in WeatherDisplay:10.37 W/m2
12:19 49.5 °F 35.8 °F 30.07 in NNW 8 mph 4.8 mph 59% 0 in WeatherDisplay:10.37 W/m2
12:24 49.6 °F 35.4 °F 30.07 in NW 9.2 mph 4.9 mph 58% 0 in WeatherDisplay:10.37 W/m2
12:29 50.1 °F 35.4 °F 30.07 in North 8.1 mph 4 mph 57% 0 in WeatherDisplay:10.37 W/m2
12:34 50.4 °F 34.8 °F 30.07 in NE 10 mph 9.2 mph 55% 0 in WeatherDisplay:10.37 W/m2
12:39 50.6 °F 35.5 °F 30.06 in WNW 11.5 mph 5.5 mph 56% 0 in WeatherDisplay:10.37 W/m2
12:44 51.2 °F 35.6 °F 30.06 in NE 9.2 mph 5.8 mph 55% 0 in WeatherDisplay:10.37 W/m2
12:49 51.3 °F 34.3 °F 30.07 in North 15 mph 7.2 mph 52% 0 in WeatherDisplay:10.37 W/m2
12:54 50.7 °F 34.6 °F 30.06 in NNW 9.2 mph 3.8 mph 54% 0 in WeatherDisplay:10.37 W/m2
12:59 50.5 °F 34.5 °F 30.06 in North 11.5 mph 5 mph 54% 0 in WeatherDisplay:10.37 W/m2
13:04 50.3 °F 34.3 °F 30.06 in North 11.5 mph 7.3 mph 54% 0 in WeatherDisplay:10.37 W/m2
13:09 50.1 °F 34.5 °F 30.06 in North 11.5 mph 4.4 mph 55% 0 in WeatherDisplay:10.37 W/m2
13:14 49.8 °F 34.3 °F 30.05 in North 9.2 mph 3.7 mph 55% 0 in WeatherDisplay:10.37 W/m2
13:19 49.9 °F 35.3 °F 30.05 in North 5.8 mph 2.1 mph 57% 0 in WeatherDisplay:10.37 W/m2
13:24 50 °F 35.4 °F 30.05 in North 10.4 mph 3.4 mph 57% 0 in WeatherDisplay:10.37 W/m2
13:29 49.9 °F 35.3 °F 30.05 in North 10.4 mph 5.6 mph 57% 0 in WeatherDisplay:10.37 W/m2
13:34 49.8 °F 35.6 °F 30.05 in North 5.8 mph 4.8 mph 58% 0 in WeatherDisplay:10.37 W/m2
13:39 49.6 °F 35.8 °F 30.05 in North 11.5 mph 6.2 mph 59% 0 in WeatherDisplay:10.37 W/m2
13:44 49.6 °F 36.3 °F 30.05 in North 6.9 mph 3.1 mph 60% 0 in WeatherDisplay:10.37 W/m2
13:49 49.7 °F 36.8 °F 30.05 in North 5.8 mph 4.4 mph 61% 0 in WeatherDisplay:10.37 W/m2
13:54 49.8 °F 36.9 °F 30.05 in North 6.9 mph 4.5 mph 61% 0 in WeatherDisplay:10.37 W/m2
13:59 50.1 °F 37.2 °F 30.04 in NNW 7 mph 5.4 mph 61% 0 in WeatherDisplay:10.37 W/m2
14:04 50.1 °F 36.7 °F 30.05 in NNW 6 mph 3.4 mph 60% 0 in WeatherDisplay:10.37 W/m2
14:09 50.2 °F 37.3 °F 30.04 in NNW 11.5 mph 3.6 mph 61% 0 in WeatherDisplay:10.37 W/m2
14:14 50.3 °F 37.8 °F 30.04 in North 9 mph 4.1 mph 62% 0 in WeatherDisplay:10.37 W/m2
14:19 50.3 °F 37.8 °F 30.04 in East 9.2 mph 4.7 mph 62% 0 in WeatherDisplay:10.37 W/m2
14:24 50.2 °F 37.3 °F 30.04 in North 11.5 mph 6.4 mph 61% 0 in WeatherDisplay:10.37 W/m2
14:29 50.2 °F 37.3 °F 30.04 in NE 8.1 mph 3.5 mph 61% 0 in WeatherDisplay:10.37 W/m2
14:34 50.2 °F 36.8 °F 30.04 in North 10.4 mph 6.9 mph 60% 0 in WeatherDisplay:10.37 W/m2
14:39 50.2 °F 37.3 °F 30.04 in North 8 mph 5 mph 61% 0 in WeatherDisplay:10.37 W/m2
14:44 50.2 °F 36 °F 30.04 in North 18.4 mph 9.9 mph 58% 0 in WeatherDisplay:10.37 W/m2
14:49 50.4 °F 36.2 °F 30.04 in North 9.2 mph 5.9 mph 58% 0 in WeatherDisplay:10.37 W/m2
14:54 50.8 °F 37 °F 30.04 in NE 15 mph 7 mph 59% 0 in WeatherDisplay:10.37 W/m2
14:59 51.3 °F 37 °F 30.04 in NNE 6.9 mph 8 mph 58% 0 in WeatherDisplay:10.37 W/m2
15:04 51.9 °F 37.6 °F 30.03 in NE 11.5 mph 7.5 mph 58% 0 in WeatherDisplay:10.37 W/m2
15:09 51.6 °F 36.4 °F 30.03 in East 11.5 mph 7.7 mph 56% 0 in WeatherDisplay:10.37 W/m2
15:14 51.8 °F 37.5 °F 30.03 in North 9.2 mph 4.6 mph 58% 0 in WeatherDisplay:10.37 W/m2
15:19 51.9 °F 37.6 °F 30.03 in WNW 12.7 mph 4.8 mph 58% 0 in WeatherDisplay:10.37 W/m2
15:24 52.1 °F 36.9 °F 30.03 in North 15 mph 5.2 mph 56% 0 in WeatherDisplay:10.37 W/m2
15:29 51.6 °F 36.4 °F 30.03 in North 12.7 mph 6.7 mph 56% 0 in WeatherDisplay:10.37 W/m2
15:34 51.2 °F 36.9 °F 30.03 in North 13 mph 8 mph 58% 0 in WeatherDisplay:10.37 W/m2
15:39 51 °F 37.2 °F 30.03 in North 6.9 mph 7.2 mph 59% 0 in WeatherDisplay:10.37 W/m2
15:44 51.1 °F 37.3 °F 30.03 in North 8.1 mph 3.5 mph 59% 0 in WeatherDisplay:10.37 W/m2
15:49 51.5 °F 38.1 °F 30.03 in North 6.9 mph 5 mph 60% 0 in WeatherDisplay:10.37 W/m2
15:54 51.4 °F 38 °F 30.03 in North 16.1 mph 5.7 mph 60% 0 in WeatherDisplay:10.37 W/m2
15:59 51 °F 37.6 °F 30.03 in North 6.9 mph 4.6 mph 60% 0 in WeatherDisplay:10.37 W/m2
16:04 51 °F 38.4 °F 30.03 in North 5.8 mph 2.1 mph 62% 0 in WeatherDisplay:10.37 W/m2
16:09 51.3 °F 39.1 °F 30.03 in North 9.2 mph 3.7 mph 63% 0 in WeatherDisplay:10.37 W/m2
16:14 51.5 °F 39.3 °F 30.03 in North 5.8 mph 3.1 mph 63% 0 in WeatherDisplay:10.37 W/m2
16:19 51.3 °F 39.1 °F 30.03 in North 9.2 mph 6 mph 63% 0 in WeatherDisplay:10.37 W/m2
16:20 51.3 °F 39.1 °F 30.03 in North 11.5 mph 5.7 mph 63% 0 in WeatherDisplay:10.37 W/m2
16:23 51.1 °F 39.3 °F 30.03 in North 12.7 mph 7.2 mph 64% 0 in WeatherDisplay:10.37 W/m2
16:29 51.1 °F 39.3 °F 30.03 in North 12.7 mph 4.5 mph 64% 0 in WeatherDisplay:10.37 W/m2
16:34 51.1 °F 40.1 °F 30.03 in ESE 6.9 mph 3.1 mph 66% 0 in WeatherDisplay:10.37 W/m2
16:39 51.3 °F 39.9 °F 30.03 in NW 10.4 mph 5.1 mph 65% 0 in WeatherDisplay:10.37 W/m2
16:44 51.1 °F 40.1 °F 30.03 in NE 9.2 mph 5.1 mph 66% 0 in WeatherDisplay:10.37 W/m2
16:49 51 °F 40 °F 30.03 in North 6.9 mph 3.1 mph 66% 0 in WeatherDisplay:10.37 W/m2
west seneca weather
Compliments of Weather Underground - 2 mb